sensor_id;sensor_type;location;lat;lon;timestamp;temperature;humidity
14210;DHT22;7188;56.070;12.698;2023-03-08T00:01:40;-1.20;1.00
14210;DHT22;7188;56.070;12.698;2023-03-08T00:04:06;-1.30;1.00
14210;DHT22;7188;56.070;12.698;2023-03-08T00:06:31;-1.30;1.00
14210;DHT22;7188;56.070;12.698;2023-03-08T00:08:59;-1.30;1.00
14210;DHT22;7188;56.070;12.698;2023-03-08T00:11:25;-1.30;1.00
14210;DHT22;7188;56.070;12.698;2023-03-08T00:13:51;-1.40;1.00
14210;DHT22;7188;56.070;12.698;2023-03-08T00:16:17;-1.30;1.00
14210;DHT22;7188;56.070;12.698;2023-03-08T00:18:42;-1.30;1.00
14210;DHT22;7188;56.070;12.698;2023-03-08T00:21:14;-1.30;1.00
14210;DHT22;7188;56.070;12.698;2023-03-08T00:23:40;-1.30;1.00
14210;DHT22;7188;56.070;12.698;2023-03-08T00:26:06;-1.30;1.00
14210;DHT22;7188;56.070;12.698;2023-03-08T00:28:32;-1.30;1.00
14210;DHT22;7188;56.070;12.698;2023-03-08T00:30:59;-1.30;1.00
14210;DHT22;7188;56.070;12.698;2023-03-08T00:33:26;-1.30;1.00
14210;DHT22;7188;56.070;12.698;2023-03-08T00:36:05;-1.30;1.00
14210;DHT22;7188;56.070;12.698;2023-03-08T00:38:33;-1.30;1.00
14210;DHT22;7188;56.070;12.698;2023-03-08T00:41:24;-1.20;1.00
14210;DHT22;7188;56.070;12.698;2023-03-08T00:43:49;-1.30;1.00
14210;DHT22;7188;56.070;12.698;2023-03-08T00:46:27;-1.30;1.00
14210;DHT22;7188;56.070;12.698;2023-03-08T00:48:53;-1.30;1.00
14210;DHT22;7188;56.070;12.698;2023-03-08T00:51:21;-1.30;1.00
14210;DHT22;7188;56.070;12.698;2023-03-08T00:53:47;-1.30;1.00
14210;DHT22;7188;56.070;12.698;2023-03-08T00:56:13;-1.30;1.00
14210;DHT22;7188;56.070;12.698;2023-03-08T00:58:40;-1.30;1.00
14210;DHT22;7188;56.070;12.698;2023-03-08T01:01:07;-1.30;1.00
14210;DHT22;7188;56.070;12.698;2023-03-08T01:03:34;-1.20;1.00
14210;DHT22;7188;56.070;12.698;2023-03-08T01:06:06;-1.30;1.00
14210;DHT22;7188;56.070;12.698;2023-03-08T01:08:38;-1.30;1.00
14210;DHT22;7188;56.070;12.698;2023-03-08T01:11:11;-1.30;1.00
14210;DHT22;7188;56.070;12.698;2023-03-08T01:13:38;-1.30;1.00
14210;DHT22;7188;56.070;12.698;2023-03-08T01:16:04;-1.30;1.00
14210;DHT22;7188;56.070;12.698;2023-03-08T01:18:30;-1.30;1.00
14210;DHT22;7188;56.070;12.698;2023-03-08T01:21:01;-1.30;1.00
14210;DHT22;7188;56.070;12.698;2023-03-08T01:23:27;-1.30;1.00
14210;DHT22;7188;56.070;12.698;2023-03-08T01:26:07;-1.30;1.00
14210;DHT22;7188;56.070;12.698;2023-03-08T01:28:33;-1.30;1.00
14210;DHT22;7188;56.070;12.698;2023-03-08T01:31:01;-1.30;1.00
14210;DHT22;7188;56.070;12.698;2023-03-08T01:33:27;-1.30;1.00
14210;DHT22;7188;56.070;12.698;2023-03-08T01:35:53;-1.30;1.00
14210;DHT22;7188;56.070;12.698;2023-03-08T01:38:18;-1.30;1.00
14210;DHT22;7188;56.070;12.698;2023-03-08T01:40:44;-1.30;1.00
14210;DHT22;7188;56.070;12.698;2023-03-08T01:43:37;-1.30;1.00
14210;DHT22;7188;56.070;12.698;2023-03-08T01:46:34;-1.30;1.00
14210;DHT22;7188;56.070;12.698;2023-03-08T01:49:13;-1.30;1.00
14210;DHT22;7188;56.070;12.698;2023-03-08T01:54:30;-1.30;99.90
14210;DHT22;7188;56.070;12.698;2023-03-08T01:59:54;-1.30;99.90
14210;DHT22;7188;56.070;12.698;2023-03-08T02:02:28;-1.30;99.90
14210;DHT22;7188;56.070;12.698;2023-03-08T02:04:55;-1.30;99.90
14210;DHT22;7188;56.070;12.698;2023-03-08T02:07:36;-1.20;99.90
14210;DHT22;7188;56.070;12.698;2023-03-08T02:10:02;-1.20;99.90
14210;DHT22;7188;56.070;12.698;2023-03-08T02:12:28;-1.20;99.90
14210;DHT22;7188;56.070;12.698;2023-03-08T02:14:56;-1.10;99.90
14210;DHT22;7188;56.070;12.698;2023-03-08T02:17:22;-1.10;99.90
14210;DHT22;7188;56.070;12.698;2023-03-08T02:19:56;-1.10;17.80
14210;DHT22;7188;56.070;12.698;2023-03-08T02:22:24;-1.00;1.00
14210;DHT22;7188;56.070;12.698;2023-03-08T02:24:50;-1.00;1.00
14210;DHT22;7188;56.070;12.698;2023-03-08T02:27:27;-1.00;1.00
14210;DHT22;7188;56.070;12.698;2023-03-08T02:29:53;-1.00;1.00
14210;DHT22;7188;56.070;12.698;2023-03-08T02:32:19;-1.00;1.00
14210;DHT22;7188;56.070;12.698;2023-03-08T02:34:44;-1.00;1.00
14210;DHT22;7188;56.070;12.698;2023-03-08T02:37:10;-1.00;1.00
14210;DHT22;7188;56.070;12.698;2023-03-08T02:39:36;-1.00;1.00
14210;DHT22;7188;56.070;12.698;2023-03-08T02:42:01;-0.90;99.90
14210;DHT22;7188;56.070;12.698;2023-03-08T02:44:27;-0.90;99.90
14210;DHT22;7188;56.070;12.698;2023-03-08T02:46:53;-0.90;99.90
14210;DHT22;7188;56.070;12.698;2023-03-08T02:49:18;-0.90;68.10
14210;DHT22;7188;56.070;12.698;2023-03-08T02:51:44;-0.90;45.20
14210;DHT22;7188;56.070;12.698;2023-03-08T02:54:10;-0.90;25.10
14210;DHT22;7188;56.070;12.698;2023-03-08T02:56:35;-0.80;17.90
14210;DHT22;7188;56.070;12.698;2023-03-08T02:59:03;-0.80;1.00
14210;DHT22;7188;56.070;12.698;2023-03-08T03:01:29;-0.90;1.00
14210;DHT22;7188;56.070;12.698;2023-03-08T03:03:54;-0.80;1.00
14210;DHT22;7188;56.070;12.698;2023-03-08T03:06:20;-0.80;1.00
14210;DHT22;7188;56.070;12.698;2023-03-08T03:08:47;-0.80;1.00
14210;DHT22;7188;56.070;12.698;2023-03-08T03:11:19;-0.70;1.00
14210;DHT22;7188;56.070;12.698;2023-03-08T03:13:46;-0.70;1.00
14210;DHT22;7188;56.070;12.698;2023-03-08T03:16:16;-0.70;1.00
14210;DHT22;7188;56.070;12.698;2023-03-08T03:18:43;-0.60;1.00
14210;DHT22;7188;56.070;12.698;2023-03-08T03:21:11;-0.50;1.00
14210;DHT22;7188;56.070;12.698;2023-03-08T03:23:38;-0.40;1.00
14210;DHT22;7188;56.070;12.698;2023-03-08T03:26:16;-0.30;99.90
14210;DHT22;7188;56.070;12.698;2023-03-08T03:28:42;-0.30;99.90
14210;DHT22;7188;56.070;12.698;2023-03-08T03:31:10;-0.40;99.90
14210;DHT22;7188;56.070;12.698;2023-03-08T03:33:37;-0.40;99.90
14210;DHT22;7188;56.070;12.698;2023-03-08T03:36:05;-0.50;92.60
14210;DHT22;7188;56.070;12.698;2023-03-08T03:38:31;-0.50;97.10
14210;DHT22;7188;56.070;12.698;2023-03-08T03:41:13;-0.50;98.10
14210;DHT22;7188;56.070;12.698;2023-03-08T03:43:39;-0.50;90.00
14210;DHT22;7188;56.070;12.698;2023-03-08T03:46:07;-0.50;90.50
14210;DHT22;7188;56.070;12.698;2023-03-08T03:48:35;-0.50;98.00
14210;DHT22;7188;56.070;12.698;2023-03-08T03:51:04;-0.50;99.90
14210;DHT22;7188;56.070;12.698;2023-03-08T03:53:32;-0.50;99.90
14210;DHT22;7188;56.070;12.698;2023-03-08T03:56:04;-0.50;99.90
14210;DHT22;7188;56.070;12.698;2023-03-08T03:58:30;-0.40;99.90
14210;DHT22;7188;56.070;12.698;2023-03-08T04:00:56;-0.40;99.90
14210;DHT22;7188;56.070;12.698;2023-03-08T04:03:22;-0.40;99.90
14210;DHT22;7188;56.070;12.698;2023-03-08T04:05:48;-0.40;99.90
14210;DHT22;7188;56.070;12.698;2023-03-08T04:08:14;-0.40;99.90
14210;DHT22;7188;56.070;12.698;2023-03-08T04:10:40;-0.40;99.90
14210;DHT22;7188;56.070;12.698;2023-03-08T04:13:05;-0.40;99.90
14210;DHT22;7188;56.070;12.698;2023-03-08T04:15:31;-0.40;99.90
14210;DHT22;7188;56.070;12.698;2023-03-08T04:17:57;-0.40;99.90
14210;DHT22;7188;56.070;12.698;2023-03-08T04:20:23;-0.40;99.90
14210;DHT22;7188;56.070;12.698;2023-03-08T04:22:50;-0.40;99.90
14210;DHT22;7188;56.070;12.698;2023-03-08T04:25:16;-0.40;99.90
14210;DHT22;7188;56.070;12.698;2023-03-08T04:27:42;-0.40;24.20
14210;DHT22;7188;56.070;12.698;2023-03-08T04:30:10;-0.30;1.00
14210;DHT22;7188;56.070;12.698;2023-03-08T04:32:36;-0.20;1.00
14210;DHT22;7188;56.070;12.698;2023-03-08T04:35:02;-0.20;1.00
14210;DHT22;7188;56.070;12.698;2023-03-08T04:37:27;-0.10;1.00
14210;DHT22;7188;56.070;12.698;2023-03-08T04:39:54;-0.10;1.00
14210;DHT22;7188;56.070;12.698;2023-03-08T04:42:20;-0.10;1.00
14210;DHT22;7188;56.070;12.698;2023-03-08T04:44:46;0.00;1.00
14210;DHT22;7188;56.070;12.698;2023-03-08T04:47:11;-0.10;1.00
14210;DHT22;7188;56.070;12.698;2023-03-08T04:49:37;-0.10;1.00
14210;DHT22;7188;56.070;12.698;2023-03-08T04:52:03;-0.10;1.00
14210;DHT22;7188;56.070;12.698;2023-03-08T04:54:28;-0.10;1.00
14210;DHT22;7188;56.070;12.698;2023-03-08T04:56:54;-0.20;1.00
14210;DHT22;7188;56.070;12.698;2023-03-08T04:59:20;-0.20;1.00
14210;DHT22;7188;56.070;12.698;2023-03-08T05:01:46;-0.20;1.00
14210;DHT22;7188;56.070;12.698;2023-03-08T05:04:11;-0.20;1.00
14210;DHT22;7188;56.070;12.698;2023-03-08T05:06:37;-0.20;1.00
14210;DHT22;7188;56.070;12.698;2023-03-08T05:09:03;-0.20;1.00
14210;DHT22;7188;56.070;12.698;2023-03-08T05:11:29;-0.30;1.00
14210;DHT22;7188;56.070;12.698;2023-03-08T05:13:56;-0.30;1.00
14210;DHT22;7188;56.070;12.698;2023-03-08T05:16:24;-0.30;1.00
14210;DHT22;7188;56.070;12.698;2023-03-08T05:18:50;-0.30;1.00
14210;DHT22;7188;56.070;12.698;2023-03-08T05:21:18;-0.30;1.00
14210;DHT22;7188;56.070;12.698;2023-03-08T05:23:44;-0.30;1.00
14210;DHT22;7188;56.070;12.698;2023-03-08T05:26:13;-0.30;1.00
14210;DHT22;7188;56.070;12.698;2023-03-08T05:28:38;-0.30;1.00
14210;DHT22;7188;56.070;12.698;2023-03-08T05:31:13;-0.30;1.00
14210;DHT22;7188;56.070;12.698;2023-03-08T05:33:40;-0.30;1.00
14210;DHT22;7188;56.070;12.698;2023-03-08T05:36:07;-0.20;1.00
14210;DHT22;7188;56.070;12.698;2023-03-08T05:38:33;-0.30;1.00
14210;DHT22;7188;56.070;12.698;2023-03-08T05:41:04;-0.30;1.00
14210;DHT22;7188;56.070;12.698;2023-03-08T05:43:30;-0.30;1.00
14210;DHT22;7188;56.070;12.698;2023-03-08T05:46:14;-0.30;1.00
14210;DHT22;7188;56.070;12.698;2023-03-08T05:48:40;-0.20;1.00
14210;DHT22;7188;56.070;12.698;2023-03-08T05:51:09;-0.20;1.00
14210;DHT22;7188;56.070;12.698;2023-03-08T05:53:35;-0.20;1.00
14210;DHT22;7188;56.070;12.698;2023-03-08T05:56:15;-0.20;1.00
14210;DHT22;7188;56.070;12.698;2023-03-08T05:58:42;-0.20;1.00
14210;DHT22;7188;56.070;12.698;2023-03-08T06:01:16;-0.20;1.00
14210;DHT22;7188;56.070;12.698;2023-03-08T06:03:43;-0.20;1.00
14210;DHT22;7188;56.070;12.698;2023-03-08T06:06:09;-0.20;1.00
14210;DHT22;7188;56.070;12.698;2023-03-08T06:08:35;-0.20;1.00
14210;DHT22;7188;56.070;12.698;2023-03-08T06:11:00;-0.20;1.00
14210;DHT22;7188;56.070;12.698;2023-03-08T06:13:26;-0.20;1.00
14210;DHT22;7188;56.070;12.698;2023-03-08T06:15:56;-0.20;1.00
14210;DHT22;7188;56.070;12.698;2023-03-08T06:18:22;-0.20;1.00
14210;DHT22;7188;56.070;12.698;2023-03-08T06:21:18;-0.10;1.00
14210;DHT22;7188;56.070;12.698;2023-03-08T06:23:46;-0.10;1.00
14210;DHT22;7188;56.070;12.698;2023-03-08T06:26:12;0.00;1.00
14210;DHT22;7188;56.070;12.698;2023-03-08T06:28:40;0.00;1.00
14210;DHT22;7188;56.070;12.698;2023-03-08T06:31:07;0.00;1.00
14210;DHT22;7188;56.070;12.698;2023-03-08T06:33:33;0.00;1.00
14210;DHT22;7188;56.070;12.698;2023-03-08T06:36:05;0.10;1.00
14210;DHT22;7188;56.070;12.698;2023-03-08T06:38:34;0.10;1.00
14210;DHT22;7188;56.070;12.698;2023-03-08T06:41:01;0.10;1.00
14210;DHT22;7188;56.070;12.698;2023-03-08T06:43:27;0.10;1.00
14210;DHT22;7188;56.070;12.698;2023-03-08T06:45:53;0.20;1.00
14210;DHT22;7188;56.070;12.698;2023-03-08T06:48:19;0.30;1.00
14210;DHT22;7188;56.070;12.698;2023-03-08T06:50:45;0.30;1.00
14210;DHT22;7188;56.070;12.698;2023-03-08T06:53:12;0.40;1.00
14210;DHT22;7188;56.070;12.698;2023-03-08T06:55:39;0.40;1.00
14210;DHT22;7188;56.070;12.698;2023-03-08T06:58:06;0.40;1.00
14210;DHT22;7188;56.070;12.698;2023-03-08T07:00:34;0.40;1.00
14210;DHT22;7188;56.070;12.698;2023-03-08T07:03:00;0.30;1.00
14210;DHT22;7188;56.070;12.698;2023-03-08T07:05:26;0.40;1.00
14210;DHT22;7188;56.070;12.698;2023-03-08T07:07:52;0.40;1.00
14210;DHT22;7188;56.070;12.698;2023-03-08T07:10:19;0.40;1.00
14210;DHT22;7188;56.070;12.698;2023-03-08T07:12:47;0.50;1.00
14210;DHT22;7188;56.070;12.698;2023-03-08T07:15:17;0.60;1.00
14210;DHT22;7188;56.070;12.698;2023-03-08T07:17:44;0.60;1.00
14210;DHT22;7188;56.070;12.698;2023-03-08T07:20:11;0.60;1.00
14210;DHT22;7188;56.070;12.698;2023-03-08T07:22:41;0.70;1.00
14210;DHT22;7188;56.070;12.698;2023-03-08T07:25:09;0.80;1.00
14210;DHT22;7188;56.070;12.698;2023-03-08T07:27:35;0.90;1.00
14210;DHT22;7188;56.070;12.698;2023-03-08T07:30:00;0.90;1.00
14210;DHT22;7188;56.070;12.698;2023-03-08T07:32:26;0.90;1.00
14210;DHT22;7188;56.070;12.698;2023-03-08T07:34:57;0.90;1.00
14210;DHT22;7188;56.070;12.698;2023-03-08T07:37:23;1.00;1.00
14210;DHT22;7188;56.070;12.698;2023-03-08T07:39:50;1.00;1.00
14210;DHT22;7188;56.070;12.698;2023-03-08T07:42:15;0.90;1.00
14210;DHT22;7188;56.070;12.698;2023-03-08T07:44:41;0.90;1.00
14210;DHT22;7188;56.070;12.698;2023-03-08T07:47:07;0.80;1.00
14210;DHT22;7188;56.070;12.698;2023-03-08T07:49:34;0.80;1.00
14210;DHT22;7188;56.070;12.698;2023-03-08T07:52:00;0.90;1.00
14210;DHT22;7188;56.070;12.698;2023-03-08T07:54:25;0.90;1.00
14210;DHT22;7188;56.070;12.698;2023-03-08T07:56:52;0.90;1.00
14210;DHT22;7188;56.070;12.698;2023-03-08T07:59:18;0.80;1.00
14210;DHT22;7188;56.070;12.698;2023-03-08T08:01:43;0.80;1.00
14210;DHT22;7188;56.070;12.698;2023-03-08T08:04:09;0.80;1.00
14210;DHT22;7188;56.070;12.698;2023-03-08T08:06:37;0.80;1.00
14210;DHT22;7188;56.070;12.698;2023-03-08T08:09:03;0.80;1.00
14210;DHT22;7188;56.070;12.698;2023-03-08T08:11:29;0.80;1.00
14210;DHT22;7188;56.070;12.698;2023-03-08T08:13:55;0.80;1.00
14210;DHT22;7188;56.070;12.698;2023-03-08T08:16:21;0.90;1.00
14210;DHT22;7188;56.070;12.698;2023-03-08T08:18:46;0.90;1.00
14210;DHT22;7188;56.070;12.698;2023-03-08T08:21:14;1.00;1.00
14210;DHT22;7188;56.070;12.698;2023-03-08T08:23:41;1.10;1.00
14210;DHT22;7188;56.070;12.698;2023-03-08T08:26:11;1.10;1.00
14210;DHT22;7188;56.070;12.698;2023-03-08T08:28:39;1.20;1.00
14210;DHT22;7188;56.070;12.698;2023-03-08T08:31:07;1.20;1.00
14210;DHT22;7188;56.070;12.698;2023-03-08T08:33:34;1.00;1.00
14210;DHT22;7188;56.070;12.698;2023-03-08T08:36:10;0.90;1.00
14210;DHT22;7188;56.070;12.698;2023-03-08T08:38:36;0.90;1.00
14210;DHT22;7188;56.070;12.698;2023-03-08T08:41:05;0.90;1.00
14210;DHT22;7188;56.070;12.698;2023-03-08T08:43:40;0.90;1.00
14210;DHT22;7188;56.070;12.698;2023-03-08T08:46:06;0.90;1.00
14210;DHT22;7188;56.070;12.698;2023-03-08T08:48:57;0.90;1.00
14210;DHT22;7188;56.070;12.698;2023-03-08T08:51:35;0.90;1.00
14210;DHT22;7188;56.070;12.698;2023-03-08T08:54:01;1.00;1.00
14210;DHT22;7188;56.070;12.698;2023-03-08T08:56:32;0.90;1.00
14210;DHT22;7188;56.070;12.698;2023-03-08T08:59:26;0.90;1.00
14210;DHT22;7188;56.070;12.698;2023-03-08T09:01:52;0.80;1.00
14210;DHT22;7188;56.070;12.698;2023-03-08T09:04:18;0.80;1.00
14210;DHT22;7188;56.070;12.698;2023-03-08T09:07:09;0.90;1.00
14210;DHT22;7188;56.070;12.698;2023-03-08T09:09:35;1.20;1.00
14210;DHT22;7188;56.070;12.698;2023-03-08T09:12:04;1.30;1.00
14210;DHT22;7188;56.070;12.698;2023-03-08T09:14:39;1.30;1.00
14210;DHT22;7188;56.070;12.698;2023-03-08T09:17:06;1.30;1.00
14210;DHT22;7188;56.070;12.698;2023-03-08T09:19:31;1.40;1.00
14210;DHT22;7188;56.070;12.698;2023-03-08T09:21:57;1.60;1.00
14210;DHT22;7188;56.070;12.698;2023-03-08T09:24:23;1.70;1.00
14210;DHT22;7188;56.070;12.698;2023-03-08T09:26:49;1.70;1.00
14210;DHT22;7188;56.070;12.698;2023-03-08T09:29:14;1.50;1.00
14210;DHT22;7188;56.070;12.698;2023-03-08T09:31:42;1.50;1.00
14210;DHT22;7188;56.070;12.698;2023-03-08T09:34:19;1.50;1.00
14210;DHT22;7188;56.070;12.698;2023-03-08T09:36:51;1.50;1.00
14210;DHT22;7188;56.070;12.698;2023-03-08T09:39:17;1.60;1.00
14210;DHT22;7188;56.070;12.698;2023-03-08T09:41:53;1.80;1.00
14210;DHT22;7188;56.070;12.698;2023-03-08T09:47:32;2.10;1.00
14210;DHT22;7188;56.070;12.698;2023-03-08T09:58:57;2.60;1.00
14210;DHT22;7188;56.070;12.698;2023-03-08T10:02:04;2.80;1.00
14210;DHT22;7188;56.070;12.698;2023-03-08T10:13:38;2.10;1.00
14210;DHT22;7188;56.070;12.698;2023-03-08T10:16:33;2.10;1.00
14210;DHT22;7188;56.070;12.698;2023-03-08T10:22:01;2.40;1.00
14210;DHT22;7188;56.070;12.698;2023-03-08T10:24:33;2.40;1.00
14210;DHT22;7188;56.070;12.698;2023-03-08T10:27:23;2.50;1.00
14210;DHT22;7188;56.070;12.698;2023-03-08T10:30:14;2.60;1.00
14210;DHT22;7188;56.070;12.698;2023-03-08T10:33:04;2.60;1.00
14210;DHT22;7188;56.070;12.698;2023-03-08T10:38:25;2.50;1.00
14210;DHT22;7188;56.070;12.698;2023-03-08T10:41:19;2.60;1.00
14210;DHT22;7188;56.070;12.698;2023-03-08T10:43:51;2.60;1.00
14210;DHT22;7188;56.070;12.698;2023-03-08T10:46:19;2.60;1.00
14210;DHT22;7188;56.070;12.698;2023-03-08T10:48:46;2.50;1.00
14210;DHT22;7188;56.070;12.698;2023-03-08T10:51:50;2.40;1.00
14210;DHT22;7188;56.070;12.698;2023-03-08T10:54:23;2.50;1.00
14210;DHT22;7188;56.070;12.698;2023-03-08T10:57:15;2.60;1.00
14210;DHT22;7188;56.070;12.698;2023-03-08T10:59:51;2.50;1.00
14210;DHT22;7188;56.070;12.698;2023-03-08T11:02:37;2.30;1.00
14210;DHT22;7188;56.070;12.698;2023-03-08T11:05:25;2.40;1.00
14210;DHT22;7188;56.070;12.698;2023-03-08T11:08:39;2.30;1.00
14210;DHT22;7188;56.070;12.698;2023-03-08T11:11:06;2.40;1.00
14210;DHT22;7188;56.070;12.698;2023-03-08T11:13:39;2.50;1.00
14210;DHT22;7188;56.070;12.698;2023-03-08T11:27:52;2.20;1.00
14210;DHT22;7188;56.070;12.698;2023-03-08T11:37:05;2.20;1.00
14210;DHT22;7188;56.070;12.698;2023-03-08T11:39:58;2.20;1.00
14210;DHT22;7188;56.070;12.698;2023-03-08T11:43:00;2.30;1.00
14210;DHT22;7188;56.070;12.698;2023-03-08T11:45:46;2.20;1.00
14210;DHT22;7188;56.070;12.698;2023-03-08T11:51:38;2.40;1.00
14210;DHT22;7188;56.070;12.698;2023-03-08T11:57:19;2.50;1.00
14210;DHT22;7188;56.070;12.698;2023-03-08T12:00:28;2.40;1.00
14210;DHT22;7188;56.070;12.698;2023-03-08T12:03:19;2.30;1.00
14210;DHT22;7188;56.070;12.698;2023-03-08T12:06:31;2.20;1.00
14210;DHT22;7188;56.070;12.698;2023-03-08T12:13:12;2.50;1.00
14210;DHT22;7188;56.070;12.698;2023-03-08T12:19:07;2.50;1.00
14210;DHT22;7188;56.070;12.698;2023-03-08T12:27:03;2.60;1.00
14210;DHT22;7188;56.070;12.698;2023-03-08T12:30:15;2.50;1.00
14210;DHT22;7188;56.070;12.698;2023-03-08T12:32:42;2.50;1.00
14210;DHT22;7188;56.070;12.698;2023-03-08T12:37:55;2.50;1.00
14210;DHT22;7188;56.070;12.698;2023-03-08T12:40:51;2.40;1.00
14210;DHT22;7188;56.070;12.698;2023-03-08T12:43:33;2.50;1.00
14210;DHT22;7188;56.070;12.698;2023-03-08T12:46:09;2.60;1.00
14210;DHT22;7188;56.070;12.698;2023-03-08T12:51:30;2.50;1.00
14210;DHT22;7188;56.070;12.698;2023-03-08T12:54:02;2.50;1.00
14210;DHT22;7188;56.070;12.698;2023-03-08T12:56:53;2.50;1.00
14210;DHT22;7188;56.070;12.698;2023-03-08T12:59:38;2.50;1.00
14210;DHT22;7188;56.070;12.698;2023-03-08T13:02:24;2.50;1.00
14210;DHT22;7188;56.070;12.698;2023-03-08T13:08:04;2.50;1.00
14210;DHT22;7188;56.070;12.698;2023-03-08T13:10:37;2.50;1.00
14210;DHT22;7188;56.070;12.698;2023-03-08T13:15:38;2.50;1.00
14210;DHT22;7188;56.070;12.698;2023-03-08T13:28:35;2.80;1.00
14210;DHT22;7188;56.070;12.698;2023-03-08T13:31:10;2.80;1.00
14210;DHT22;7188;56.070;12.698;2023-03-08T13:33:51;2.70;1.00
14210;DHT22;7188;56.070;12.698;2023-03-08T13:36:31;2.50;1.00
14210;DHT22;7188;56.070;12.698;2023-03-08T13:39:28;2.60;1.00
14210;DHT22;7188;56.070;12.698;2023-03-08T13:42:09;2.60;1.00
14210;DHT22;7188;56.070;12.698;2023-03-08T13:44:41;2.60;1.00
14210;DHT22;7188;56.070;12.698;2023-03-08T13:47:29;2.50;1.00
14210;DHT22;7188;56.070;12.698;2023-03-08T13:49:57;2.60;1.00
14210;DHT22;7188;56.070;12.698;2023-03-08T13:52:29;2.60;1.00
14210;DHT22;7188;56.070;12.698;2023-03-08T13:54:59;2.60;1.00
14210;DHT22;7188;56.070;12.698;2023-03-08T13:57:30;2.60;1.00
14210;DHT22;7188;56.070;12.698;2023-03-08T14:00:00;2.60;1.00
14210;DHT22;7188;56.070;12.698;2023-03-08T14:02:30;2.60;1.00
14210;DHT22;7188;56.070;12.698;2023-03-08T14:04:57;2.50;1.00
14210;DHT22;7188;56.070;12.698;2023-03-08T14:07:28;2.50;1.00
14210;DHT22;7188;56.070;12.698;2023-03-08T14:09:54;2.50;1.00
14210;DHT22;7188;56.070;12.698;2023-03-08T14:12:24;2.50;1.00
14210;DHT22;7188;56.070;12.698;2023-03-08T14:14:55;2.50;1.00
14210;DHT22;7188;56.070;12.698;2023-03-08T14:17:27;2.60;1.00
14210;DHT22;7188;56.070;12.698;2023-03-08T14:20:02;2.60;1.00
14210;DHT22;7188;56.070;12.698;2023-03-08T14:22:49;2.50;1.00
14210;DHT22;7188;56.070;12.698;2023-03-08T14:25:30;2.40;1.00
14210;DHT22;7188;56.070;12.698;2023-03-08T14:27:57;2.40;1.00
14210;DHT22;7188;56.070;12.698;2023-03-08T14:30:28;2.30;1.00
14210;DHT22;7188;56.070;12.698;2023-03-08T14:32:56;2.30;1.00
14210;DHT22;7188;56.070;12.698;2023-03-08T14:35:26;2.40;1.00
14210;DHT22;7188;56.070;12.698;2023-03-08T14:37:53;2.30;1.00
14210;DHT22;7188;56.070;12.698;2023-03-08T14:40:34;2.30;1.00
14210;DHT22;7188;56.070;12.698;2023-03-08T14:43:05;2.30;1.00
14210;DHT22;7188;56.070;12.698;2023-03-08T14:45:40;2.40;1.00
14210;DHT22;7188;56.070;12.698;2023-03-08T14:54:04;2.20;1.00
14210;DHT22;7188;56.070;12.698;2023-03-08T14:56:31;2.00;1.00
14210;DHT22;7188;56.070;12.698;2023-03-08T14:59:02;2.10;1.00
14210;DHT22;7188;56.070;12.698;2023-03-08T15:01:32;2.10;1.00
14210;DHT22;7188;56.070;12.698;2023-03-08T15:04:00;2.00;1.00
14210;DHT22;7188;56.070;12.698;2023-03-08T15:06:29;2.00;1.00
14210;DHT22;7188;56.070;12.698;2023-03-08T15:08:56;2.00;1.00
14210;DHT22;7188;56.070;12.698;2023-03-08T15:11:22;2.10;1.00
14210;DHT22;7188;56.070;12.698;2023-03-08T15:13:49;2.00;1.00
14210;DHT22;7188;56.070;12.698;2023-03-08T15:16:15;2.00;1.00
14210;DHT22;7188;56.070;12.698;2023-03-08T15:18:41;1.90;1.00
14210;DHT22;7188;56.070;12.698;2023-03-08T15:21:11;1.90;1.00
14210;DHT22;7188;56.070;12.698;2023-03-08T15:23:38;1.90;1.00
14210;DHT22;7188;56.070;12.698;2023-03-08T15:26:07;1.80;1.00
14210;DHT22;7188;56.070;12.698;2023-03-08T15:28:33;1.80;1.00
14210;DHT22;7188;56.070;12.698;2023-03-08T15:30:58;1.70;1.00
14210;DHT22;7188;56.070;12.698;2023-03-08T15:33:25;1.80;1.00
14210;DHT22;7188;56.070;12.698;2023-03-08T15:35:51;1.70;1.00
14210;DHT22;7188;56.070;12.698;2023-03-08T15:38:18;1.70;1.00
14210;DHT22;7188;56.070;12.698;2023-03-08T15:40:43;1.70;1.00
14210;DHT22;7188;56.070;12.698;2023-03-08T15:43:09;1.60;1.00
14210;DHT22;7188;56.070;12.698;2023-03-08T15:45:36;1.50;1.00
14210;DHT22;7188;56.070;12.698;2023-03-08T15:50:29;1.50;1.00
14210;DHT22;7188;56.070;12.698;2023-03-08T15:52:57;1.50;1.00
14210;DHT22;7188;56.070;12.698;2023-03-08T15:55:25;1.50;1.00
14210;DHT22;7188;56.070;12.698;2023-03-08T15:57:51;1.50;1.00
14210;DHT22;7188;56.070;12.698;2023-03-08T16:00:18;1.40;1.00
14210;DHT22;7188;56.070;12.698;2023-03-08T16:02:44;1.40;1.00
14210;DHT22;7188;56.070;12.698;2023-03-08T16:05:11;1.40;1.00
14210;DHT22;7188;56.070;12.698;2023-03-08T16:07:37;1.40;1.00
14210;DHT22;7188;56.070;12.698;2023-03-08T16:10:05;1.30;1.00
14210;DHT22;7188;56.070;12.698;2023-03-08T16:12:31;1.30;1.00
14210;DHT22;7188;56.070;12.698;2023-03-08T16:14:57;1.20;1.00
14210;DHT22;7188;56.070;12.698;2023-03-08T16:17:23;1.20;1.00
14210;DHT22;7188;56.070;12.698;2023-03-08T16:19:52;1.10;1.00
14210;DHT22;7188;56.070;12.698;2023-03-08T16:22:18;1.00;1.00
14210;DHT22;7188;56.070;12.698;2023-03-08T16:24:44;1.10;1.00
14210;DHT22;7188;56.070;12.698;2023-03-08T16:27:10;1.10;1.00
14210;DHT22;7188;56.070;12.698;2023-03-08T16:29:36;1.00;1.00
14210;DHT22;7188;56.070;12.698;2023-03-08T16:32:02;1.00;1.00
14210;DHT22;7188;56.070;12.698;2023-03-08T16:34:28;0.90;1.00
14210;DHT22;7188;56.070;12.698;2023-03-08T16:36:55;0.80;1.00
14210;DHT22;7188;56.070;12.698;2023-03-08T16:39:22;0.70;1.00
14210;DHT22;7188;56.070;12.698;2023-03-08T16:41:48;0.70;1.00
14210;DHT22;7188;56.070;12.698;2023-03-08T16:44:24;0.70;1.00
14210;DHT22;7188;56.070;12.698;2023-03-08T16:46:50;0.60;1.00
14210;DHT22;7188;56.070;12.698;2023-03-08T16:49:17;0.60;1.00
14210;DHT22;7188;56.070;12.698;2023-03-08T16:51:43;0.50;1.00
14210;DHT22;7188;56.070;12.698;2023-03-08T16:54:10;0.50;1.00
14210;DHT22;7188;56.070;12.698;2023-03-08T16:56:36;0.40;1.00
14210;DHT22;7188;56.070;12.698;2023-03-08T16:59:02;0.30;1.00
14210;DHT22;7188;56.070;12.698;2023-03-08T17:01:29;0.20;1.00
14210;DHT22;7188;56.070;12.698;2023-03-08T17:03:55;0.10;1.00
14210;DHT22;7188;56.070;12.698;2023-03-08T17:06:24;0.00;1.00
14210;DHT22;7188;56.070;12.698;2023-03-08T17:08:50;-0.10;1.00
14210;DHT22;7188;56.070;12.698;2023-03-08T17:11:21;-0.20;1.00
14210;DHT22;7188;56.070;12.698;2023-03-08T17:13:49;-0.30;1.00
14210;DHT22;7188;56.070;12.698;2023-03-08T17:16:19;-0.30;1.00
14210;DHT22;7188;56.070;12.698;2023-03-08T17:19:04;-0.50;1.00
14210;DHT22;7188;56.070;12.698;2023-03-08T17:21:31;-0.40;1.00
14210;DHT22;7188;56.070;12.698;2023-03-08T17:24:04;-0.50;1.00
14210;DHT22;7188;56.070;12.698;2023-03-08T17:26:33;-0.70;1.00
14210;DHT22;7188;56.070;12.698;2023-03-08T17:28:59;-0.80;1.00
14210;DHT22;7188;56.070;12.698;2023-03-08T17:31:25;-0.90;1.00
14210;DHT22;7188;56.070;12.698;2023-03-08T17:33:51;-1.00;1.00
14210;DHT22;7188;56.070;12.698;2023-03-08T17:36:17;-1.10;1.00
14210;DHT22;7188;56.070;12.698;2023-03-08T17:38:44;-1.20;1.00
14210;DHT22;7188;56.070;12.698;2023-03-08T17:41:12;-1.20;1.00
14210;DHT22;7188;56.070;12.698;2023-03-08T17:43:38;-1.30;1.00
14210;DHT22;7188;56.070;12.698;2023-03-08T17:46:15;-1.40;1.00
14210;DHT22;7188;56.070;12.698;2023-03-08T17:48:42;-1.50;1.00
14210;DHT22;7188;56.070;12.698;2023-03-08T17:51:13;-1.50;1.00
14210;DHT22;7188;56.070;12.698;2023-03-08T17:53:41;-1.60;1.00